BON118 FAPE-FALA
Flight info
| Callsign | BON118 |
|---|---|
| Flight time | 1h 20m |
| Altitude | 37000 |
| Route | ITKIT UZ5 UNPOM LIV |
| Aircraft | B738/M-SDE2E3FGHIRWXY/LB1 |
Departure
| Time | 2026-04-27 07:32 |
|---|---|
| Airport | Chief Dawid Stuurman International Airport (FAPE) |
Arrival
| Time | 2026-04-27 08:53 |
|---|---|
| Airport | Lanseria International Airport (FALA) |
| Time | Latitude | Longitude | Altitude | Speed | Heading |
|---|---|---|---|---|---|
| 2026-04-27 06:39 | -33.98433 | 25.61259 | 204 ft | 0 kts | 328° |
| 2026-04-27 07:21 | -33.98436 | 25.61261 | 204 ft | 3 kts | 330° |
| 2026-04-27 07:21 | -33.98460 | 25.61273 | 204 ft | 4 kts | 359° |
| 2026-04-27 07:22 | -33.98484 | 25.61266 | 204 ft | 4 kts | 42° |
| 2026-04-27 07:22 | -33.98493 | 25.61254 | 204 ft | 1 kts | 57° |
| 2026-04-27 07:22 | -33.98494 | 25.61252 | 212 ft | 0 kts | 57° |
| 2026-04-27 07:27 | -33.98493 | 25.61254 | 211 ft | 1 kts | 57° |
| 2026-04-27 07:27 | -33.98476 | 25.61287 | 211 ft | 8 kts | 57° |
| 2026-04-27 07:27 | -33.98441 | 25.61351 | 205 ft | 10 kts | 57° |
| 2026-04-27 07:28 | -33.98415 | 25.61431 | 209 ft | 11 kts | 75° |
| 2026-04-27 07:28 | -33.98383 | 25.61515 | 207 ft | 12 kts | 66° |
| 2026-04-27 07:28 | -33.98364 | 25.61617 | 215 ft | 13 kts | 123° |
| 2026-04-27 07:28 | -33.98453 | 25.61695 | 204 ft | 18 kts | 146° |
| 2026-04-27 07:29 | -33.98574 | 25.61792 | 204 ft | 23 kts | 145° |
| 2026-04-27 07:29 | -33.98719 | 25.61910 | 212 ft | 28 kts | 147° |
| 2026-04-27 07:29 | -33.98883 | 25.62042 | 201 ft | 28 kts | 147° |
| 2026-04-27 07:29 | -33.99037 | 25.62167 | 209 ft | 26 kts | 146° |
| 2026-04-27 07:30 | -33.99181 | 25.62285 | 204 ft | 24 kts | 146° |
| 2026-04-27 07:30 | -33.99314 | 25.62395 | 207 ft | 23 kts | 143° |
| 2026-04-27 07:30 | -33.99436 | 25.62513 | 210 ft | 22 kts | 144° |
| 2026-04-27 07:30 | -33.99557 | 25.62615 | 208 ft | 14 kts | 144° |
| 2026-04-27 07:31 | -33.99597 | 25.62636 | 198 ft | 1 kts | 244° |
| 2026-04-27 07:31 | -33.99588 | 25.62619 | 198 ft | 4 kts | 308° |
| 2026-04-27 07:31 | -33.99573 | 25.62605 | 201 ft | 0 kts | 326° |
| 2026-04-27 07:31 | -33.99572 | 25.62605 | 198 ft | 2 kts | 326° |
| 2026-04-27 07:32 | -33.99407 | 25.62469 | 199 ft | 67 kts | 325° |
| 2026-04-27 07:32 | -33.98807 | 25.61978 | 203 ft | 138 kts | 325° |
| 2026-04-27 07:32 | -33.97890 | 25.61254 | 542 ft | 169 kts | 324° |
| 2026-04-27 07:32 | -33.96829 | 25.60540 | 1288 ft | 181 kts | 328° |
| 2026-04-27 07:33 | -33.95696 | 25.60007 | 2386 ft | 175 kts | 331° |
| 2026-04-27 07:33 | -33.94483 | 25.59405 | 2759 ft | 203 kts | 329° |
| 2026-04-27 07:33 | -33.93086 | 25.58741 | 3004 ft | 228 kts | 329° |
| 2026-04-27 07:33 | -33.91514 | 25.58042 | 3254 ft | 251 kts | 329° |
| 2026-04-27 07:34 | -33.89841 | 25.57295 | 3856 ft | 261 kts | 330° |
| 2026-04-27 07:34 | -33.88120 | 25.56577 | 4795 ft | 267 kts | 338° |
| 2026-04-27 07:34 | -33.86195 | 25.56575 | 5632 ft | 291 kts | 5° |
| 2026-04-27 07:34 | -33.84302 | 25.57636 | 6428 ft | 312 kts | 32° |
| 2026-04-27 07:35 | -33.82650 | 25.59375 | 7294 ft | 319 kts | 39° |
| 2026-04-27 07:35 | -33.81035 | 25.61234 | 8104 ft | 324 kts | 40° |
| 2026-04-27 07:35 | -33.79439 | 25.63174 | 8941 ft | 327 kts | 42° |
| 2026-04-27 07:35 | -33.77861 | 25.65141 | 9859 ft | 327 kts | 42° |
| 2026-04-27 07:36 | -33.76275 | 25.67123 | 10629 ft | 334 kts | 41° |
| 2026-04-27 07:36 | -33.74607 | 25.69193 | 10889 ft | 357 kts | 41° |
| 2026-04-27 07:36 | -33.72833 | 25.71382 | 11348 ft | 371 kts | 41° |
| 2026-04-27 07:36 | -33.71021 | 25.73617 | 12139 ft | 374 kts | 41° |
| 2026-04-27 07:37 | -33.69202 | 25.75862 | 12980 ft | 376 kts | 40° |
| 2026-04-27 07:37 | -33.67364 | 25.78122 | 13743 ft | 381 kts | 39° |
| 2026-04-27 07:37 | -33.65495 | 25.80417 | 14447 ft | 388 kts | 39° |
| 2026-04-27 07:37 | -33.63594 | 25.82745 | 15201 ft | 393 kts | 38° |
| 2026-04-27 07:38 | -33.61668 | 25.85104 | 15962 ft | 398 kts | 38° |
| 2026-04-27 07:38 | -33.59712 | 25.87496 | 16670 ft | 404 kts | 37° |
| 2026-04-27 07:38 | -33.57727 | 25.89922 | 17343 ft | 411 kts | 37° |
| 2026-04-27 07:38 | -33.55713 | 25.92382 | 18034 ft | 416 kts | 36° |
| 2026-04-27 07:39 | -33.53676 | 25.94870 | 18704 ft | 421 kts | 36° |
| 2026-04-27 07:39 | -33.51612 | 25.97389 | 19377 ft | 425 kts | 36° |
| 2026-04-27 07:39 | -33.49529 | 25.99929 | 20020 ft | 430 kts | 36° |
| 2026-04-27 07:39 | -33.47420 | 26.02500 | 20661 ft | 434 kts | 35° |
| 2026-04-27 07:40 | -33.45306 | 26.05081 | 21356 ft | 436 kts | 35° |
| 2026-04-27 07:40 | -33.43166 | 26.07687 | 21890 ft | 441 kts | 35° |
| 2026-04-27 07:40 | -33.41001 | 26.10319 | 22447 ft | 446 kts | 35° |
| 2026-04-27 07:40 | -33.38840 | 26.12939 | 23038 ft | 449 kts | 34° |
| 2026-04-27 07:41 | -33.36496 | 26.15333 | 23593 ft | 438 kts | 24° |
| 2026-04-27 07:41 | -33.33926 | 26.17199 | 24158 ft | 428 kts | 14° |
| 2026-04-27 07:41 | -33.31216 | 26.18532 | 24696 ft | 418 kts | 6° |
| 2026-04-27 07:41 | -33.28448 | 26.19663 | 25182 ft | 422 kts | 6° |
| 2026-04-27 07:42 | -33.26560 | 26.20425 | 25479 ft | 425 kts | 5° |
| 2026-04-27 07:42 | -33.22826 | 26.21938 | 26089 ft | 431 kts | 5° |
| 2026-04-27 07:42 | -33.19976 | 26.23105 | 26523 ft | 435 kts | 5° |
| 2026-04-27 07:42 | -33.17104 | 26.24293 | 26941 ft | 439 kts | 5° |
| 2026-04-27 07:43 | -33.14209 | 26.25498 | 27328 ft | 443 kts | 5° |
| 2026-04-27 07:43 | -33.11291 | 26.26716 | 27730 ft | 446 kts | 5° |
| 2026-04-27 07:43 | -33.09306 | 26.27546 | 27996 ft | 448 kts | 5° |
| 2026-04-27 07:43 | -33.06356 | 26.28778 | 28372 ft | 451 kts | 5° |
| 2026-04-27 07:44 | -33.03379 | 26.30019 | 28675 ft | 456 kts | 5° |
| 2026-04-27 07:44 | -33.00372 | 26.31271 | 29043 ft | 459 kts | 5° |
| 2026-04-27 07:44 | -32.97355 | 26.32529 | 29437 ft | 461 kts | 4° |
| 2026-04-27 07:44 | -32.94312 | 26.33795 | 29706 ft | 466 kts | 4° |
| 2026-04-27 07:45 | -32.91274 | 26.35054 | 29964 ft | 471 kts | 4° |
| 2026-04-27 07:45 | -32.88175 | 26.36342 | 30296 ft | 473 kts | 4° |
| 2026-04-27 07:45 | -32.85059 | 26.37639 | 30672 ft | 474 kts | 4° |
| 2026-04-27 07:45 | -32.81938 | 26.38936 | 31004 ft | 477 kts | 4° |
| 2026-04-27 07:46 | -32.78792 | 26.40241 | 31253 ft | 480 kts | 4° |
| 2026-04-27 07:46 | -32.75626 | 26.41553 | 31523 ft | 483 kts | 4° |
| 2026-04-27 07:46 | -32.72448 | 26.42869 | 31802 ft | 485 kts | 4° |
| 2026-04-27 07:46 | -32.69254 | 26.44191 | 32114 ft | 486 kts | 4° |
| 2026-04-27 07:47 | -32.66067 | 26.45513 | 32557 ft | 485 kts | 4° |
| 2026-04-27 07:47 | -32.62887 | 26.46834 | 32973 ft | 484 kts | 3° |
| 2026-04-27 07:47 | -32.59712 | 26.48151 | 33324 ft | 484 kts | 3° |
| 2026-04-27 07:47 | -32.56536 | 26.49467 | 33670 ft | 484 kts | 3° |
| 2026-04-27 07:48 | -32.53356 | 26.50784 | 34002 ft | 484 kts | 2° |
| 2026-04-27 07:48 | -32.50183 | 26.52096 | 34275 ft | 484 kts | 2° |
| 2026-04-27 07:48 | -32.47007 | 26.53409 | 34605 ft | 483 kts | 2° |
| 2026-04-27 07:48 | -32.43836 | 26.54720 | 34985 ft | 482 kts | 2° |
| 2026-04-27 07:49 | -32.40675 | 26.56026 | 35379 ft | 481 kts | 2° |
| 2026-04-27 07:49 | -32.37523 | 26.57329 | 35780 ft | 478 kts | 2° |
| 2026-04-27 07:49 | -32.34391 | 26.58623 | 36187 ft | 475 kts | 2° |
| 2026-04-27 07:49 | -32.31274 | 26.59907 | 36499 ft | 475 kts | 2° |
| 2026-04-27 07:50 | -32.28160 | 26.61185 | 36746 ft | 474 kts | 2° |
| 2026-04-27 07:50 | -32.25048 | 26.62466 | 37105 ft | 471 kts | 2° |
| 2026-04-27 07:50 | -32.21944 | 26.63740 | 37065 ft | 472 kts | 2° |
| 2026-04-27 07:51 | -32.15774 | 26.66274 | 37112 ft | 467 kts | 2° |
| 2026-04-27 07:51 | -32.09655 | 26.68773 | 37109 ft | 464 kts | 2° |
| 2026-04-27 07:52 | -32.03572 | 26.71247 | 37096 ft | 461 kts | 2° |
| 2026-04-27 07:52 | -31.97513 | 26.73709 | 37110 ft | 460 kts | 2° |
| 2026-04-27 07:53 | -31.91407 | 26.76177 | 37113 ft | 468 kts | 2° |
| 2026-04-27 07:53 | -31.85168 | 26.78704 | 37112 ft | 481 kts | 3° |
| 2026-04-27 07:54 | -31.78833 | 26.81283 | 37107 ft | 481 kts | 3° |
| 2026-04-27 07:54 | -31.72606 | 26.83838 | 37079 ft | 467 kts | 3° |
| 2026-04-27 07:55 | -31.66504 | 26.86322 | 37109 ft | 463 kts | 2° |
| 2026-04-27 07:55 | -31.60418 | 26.88749 | 37102 ft | 461 kts | 2° |
| 2026-04-27 07:56 | -31.54410 | 26.91171 | 37115 ft | 459 kts | 3° |
| 2026-04-27 07:56 | -31.48365 | 26.93616 | 37107 ft | 460 kts | 3° |
| 2026-04-27 07:57 | -31.42281 | 26.96067 | 37133 ft | 464 kts | 3° |
| 2026-04-27 07:57 | -31.36170 | 26.98539 | 37137 ft | 465 kts | 3° |
| 2026-04-27 07:58 | -31.30018 | 27.00996 | 37131 ft | 469 kts | 4° |
| 2026-04-27 07:58 | -31.23813 | 27.03469 | 37128 ft | 474 kts | 4° |
| 2026-04-27 07:59 | -31.17564 | 27.05982 | 37125 ft | 476 kts | 4° |
| 2026-04-27 07:59 | -31.08281 | 27.09712 | 37113 ft | 464 kts | 4° |
| 2026-04-27 08:00 | -31.02163 | 27.12144 | 37146 ft | 466 kts | 4° |
| 2026-04-27 08:00 | -30.96016 | 27.14578 | 37150 ft | 468 kts | 4° |
| 2026-04-27 08:01 | -30.89856 | 27.17023 | 37144 ft | 469 kts | 4° |
| 2026-04-27 08:01 | -30.83676 | 27.19473 | 37136 ft | 471 kts | 4° |
| 2026-04-27 08:02 | -30.77485 | 27.21938 | 37141 ft | 470 kts | 5° |
| 2026-04-27 08:02 | -30.71338 | 27.24376 | 37150 ft | 470 kts | 5° |
| 2026-04-27 08:03 | -30.65142 | 27.26827 | 37161 ft | 470 kts | 5° |
| 2026-04-27 08:03 | -30.58965 | 27.29269 | 37138 ft | 468 kts | 5° |
| 2026-04-27 08:04 | -30.52803 | 27.31692 | 37155 ft | 467 kts | 5° |
| 2026-04-27 08:04 | -30.46645 | 27.34114 | 37177 ft | 468 kts | 5° |
| 2026-04-27 08:05 | -30.40472 | 27.36535 | 37182 ft | 468 kts | 5° |
| 2026-04-27 08:05 | -30.34302 | 27.38951 | 37170 ft | 468 kts | 6° |
| 2026-04-27 08:06 | -30.28108 | 27.41386 | 37197 ft | 472 kts | 6° |
| 2026-04-27 08:06 | -30.21908 | 27.43821 | 37174 ft | 469 kts | 5° |
| 2026-04-27 08:07 | -30.15724 | 27.46242 | 37199 ft | 470 kts | 6° |
| 2026-04-27 08:07 | -30.09512 | 27.48647 | 37196 ft | 471 kts | 6° |
| 2026-04-27 08:08 | -30.03308 | 27.51073 | 37196 ft | 472 kts | 6° |
| 2026-04-27 08:08 | -29.97083 | 27.53499 | 37207 ft | 472 kts | 6° |
| 2026-04-27 08:09 | -29.90862 | 27.55925 | 37206 ft | 472 kts | 6° |
| 2026-04-27 08:09 | -29.84648 | 27.58344 | 37210 ft | 471 kts | 6° |
| 2026-04-27 08:10 | -29.78445 | 27.60753 | 37210 ft | 470 kts | 6° |
| 2026-04-27 08:10 | -29.72261 | 27.63149 | 37227 ft | 468 kts | 6° |
| 2026-04-27 08:11 | -29.66089 | 27.65537 | 37240 ft | 468 kts | 6° |
| 2026-04-27 08:11 | -29.59912 | 27.67922 | 37241 ft | 468 kts | 6° |
| 2026-04-27 08:12 | -29.53738 | 27.70306 | 37239 ft | 469 kts | 6° |
| 2026-04-27 08:12 | -29.47550 | 27.72689 | 37246 ft | 469 kts | 6° |
| 2026-04-27 08:13 | -29.41355 | 27.75073 | 37255 ft | 470 kts | 6° |
| 2026-04-27 08:13 | -29.35186 | 27.77445 | 37259 ft | 471 kts | 7° |
| 2026-04-27 08:14 | -29.28967 | 27.79833 | 37260 ft | 472 kts | 7° |
| 2026-04-27 08:14 | -29.22733 | 27.82225 | 37261 ft | 473 kts | 7° |
| 2026-04-27 08:15 | -29.16491 | 27.84616 | 37276 ft | 473 kts | 7° |
| 2026-04-27 08:15 | -29.10239 | 27.87007 | 37279 ft | 474 kts | 7° |
| 2026-04-27 08:16 | -29.03984 | 27.89397 | 37286 ft | 474 kts | 7° |
| 2026-04-27 08:16 | -28.97722 | 27.91787 | 37294 ft | 474 kts | 7° |
| 2026-04-27 08:17 | -28.91460 | 27.94173 | 37308 ft | 475 kts | 7° |
| 2026-04-27 08:17 | -28.85188 | 27.96560 | 37303 ft | 475 kts | 8° |
| 2026-04-27 08:18 | -28.78925 | 27.98940 | 37317 ft | 475 kts | 8° |
| 2026-04-27 08:18 | -28.72653 | 28.01321 | 37323 ft | 475 kts | 8° |
| 2026-04-27 08:19 | -28.66370 | 28.03703 | 37326 ft | 476 kts | 8° |
| 2026-04-27 08:19 | -28.60084 | 28.06083 | 37335 ft | 476 kts | 8° |
| 2026-04-27 08:20 | -28.53841 | 28.08445 | 37338 ft | 476 kts | 8° |
| 2026-04-27 08:20 | -28.47543 | 28.10823 | 37340 ft | 478 kts | 8° |
| 2026-04-27 08:21 | -28.41231 | 28.13204 | 37340 ft | 478 kts | 8° |
| 2026-04-27 08:21 | -28.34921 | 28.15583 | 37345 ft | 478 kts | 8° |
| 2026-04-27 08:22 | -28.28594 | 28.17964 | 37344 ft | 479 kts | 9° |
| 2026-04-27 08:22 | -28.22267 | 28.20338 | 37361 ft | 479 kts | 9° |
| 2026-04-27 08:23 | -28.15930 | 28.22713 | 37345 ft | 480 kts | 9° |
| 2026-04-27 08:23 | -28.09588 | 28.25089 | 37349 ft | 480 kts | 9° |
| 2026-04-27 08:24 | -28.03247 | 28.27463 | 37349 ft | 480 kts | 9° |
| 2026-04-27 08:24 | -27.96902 | 28.29816 | 37338 ft | 479 kts | 8° |
| 2026-04-27 08:25 | -27.90538 | 28.31976 | 37348 ft | 477 kts | 7° |
| 2026-04-27 08:25 | -27.84173 | 28.34077 | 37338 ft | 477 kts | 7° |
| 2026-04-27 08:26 | -27.77814 | 28.36198 | 37333 ft | 477 kts | 7° |
| 2026-04-27 08:26 | -27.71458 | 28.38334 | 37323 ft | 476 kts | 7° |
| 2026-04-27 08:27 | -27.65152 | 28.40453 | 37330 ft | 476 kts | 7° |
| 2026-04-27 08:27 | -27.58811 | 28.42580 | 37313 ft | 475 kts | 7° |
| 2026-04-27 08:28 | -27.52472 | 28.44703 | 37311 ft | 475 kts | 7° |
| 2026-04-27 08:28 | -27.46160 | 28.46958 | 37295 ft | 482 kts | 14° |
| 2026-04-27 08:29 | -27.40035 | 28.50129 | 37301 ft | 486 kts | 18° |
| 2026-04-27 08:29 | -27.33949 | 28.53441 | 37294 ft | 486 kts | 17° |
| 2026-04-27 08:30 | -27.27839 | 28.56685 | 37293 ft | 485 kts | 17° |
| 2026-04-27 08:30 | -27.21710 | 28.59881 | 37282 ft | 486 kts | 17° |
| 2026-04-27 08:31 | -27.16611 | 28.62531 | 37267 ft | 486 kts | 17° |
| 2026-04-27 08:31 | -27.13527 | 28.64132 | 36771 ft | 490 kts | 17° |
| 2026-04-27 08:31 | -27.10443 | 28.65737 | 36238 ft | 488 kts | 17° |
| 2026-04-27 08:32 | -27.07361 | 28.67341 | 35602 ft | 488 kts | 17° |
| 2026-04-27 08:32 | -27.04276 | 28.68944 | 34946 ft | 490 kts | 17° |
| 2026-04-27 08:32 | -27.01180 | 28.70551 | 34274 ft | 491 kts | 17° |
| 2026-04-27 08:32 | -26.98077 | 28.72161 | 33623 ft | 492 kts | 16° |
| 2026-04-27 08:33 | -26.94976 | 28.73763 | 33107 ft | 488 kts | 16° |
| 2026-04-27 08:33 | -26.91904 | 28.75341 | 32696 ft | 483 kts | 16° |
| 2026-04-27 08:33 | -26.88869 | 28.76896 | 32290 ft | 477 kts | 16° |
| 2026-04-27 08:33 | -26.85863 | 28.78434 | 31860 ft | 473 kts | 16° |
| 2026-04-27 08:34 | -26.82883 | 28.79959 | 31399 ft | 469 kts | 16° |
| 2026-04-27 08:34 | -26.79928 | 28.81471 | 30920 ft | 466 kts | 16° |
| 2026-04-27 08:34 | -26.76953 | 28.82829 | 30450 ft | 451 kts | 5° |
| 2026-04-27 08:34 | -26.73942 | 28.83185 | 29974 ft | 423 kts | 346° |
| 2026-04-27 08:35 | -26.71142 | 28.82609 | 29524 ft | 397 kts | 332° |
| 2026-04-27 08:35 | -26.68692 | 28.81379 | 28883 ft | 380 kts | 321° |
| 2026-04-27 08:35 | -26.66548 | 28.79718 | 28137 ft | 371 kts | 312° |
| 2026-04-27 08:35 | -26.64776 | 28.77685 | 27394 ft | 361 kts | 301° |
| 2026-04-27 08:36 | -26.63409 | 28.75365 | 26715 ft | 355 kts | 297° |
| 2026-04-27 08:36 | -26.62124 | 28.73015 | 26043 ft | 353 kts | 296° |
| 2026-04-27 08:36 | -26.60862 | 28.70672 | 25381 ft | 351 kts | 297° |
| 2026-04-27 08:36 | -26.59607 | 28.68339 | 24732 ft | 349 kts | 297° |
| 2026-04-27 08:37 | -26.58353 | 28.66019 | 24085 ft | 348 kts | 297° |
| 2026-04-27 08:37 | -26.57101 | 28.63715 | 23456 ft | 346 kts | 297° |
| 2026-04-27 08:37 | -26.55853 | 28.61427 | 22826 ft | 344 kts | 298° |
| 2026-04-27 08:37 | -26.54612 | 28.59160 | 22244 ft | 341 kts | 298° |
| 2026-04-27 08:38 | -26.53381 | 28.56915 | 21675 ft | 337 kts | 298° |
| 2026-04-27 08:38 | -26.52175 | 28.54719 | 21091 ft | 336 kts | 298° |
| 2026-04-27 08:38 | -26.50952 | 28.52491 | 20550 ft | 337 kts | 298° |
| 2026-04-27 08:38 | -26.49733 | 28.50276 | 20156 ft | 333 kts | 298° |
| 2026-04-27 08:39 | -26.48527 | 28.48085 | 19752 ft | 330 kts | 298° |
| 2026-04-27 08:39 | -26.47329 | 28.45911 | 19317 ft | 328 kts | 298° |
| 2026-04-27 08:39 | -26.46139 | 28.43752 | 18884 ft | 326 kts | 298° |
| 2026-04-27 08:39 | -26.44954 | 28.41601 | 18451 ft | 324 kts | 298° |
| 2026-04-27 08:40 | -26.43776 | 28.39463 | 18013 ft | 323 kts | 298° |
| 2026-04-27 08:40 | -26.42602 | 28.37334 | 17585 ft | 322 kts | 298° |
| 2026-04-27 08:40 | -26.41432 | 28.35212 | 17164 ft | 320 kts | 298° |
| 2026-04-27 08:40 | -26.40268 | 28.33106 | 16740 ft | 318 kts | 298° |
| 2026-04-27 08:41 | -26.39108 | 28.31006 | 16309 ft | 317 kts | 298° |
| 2026-04-27 08:41 | -26.37954 | 28.28919 | 15886 ft | 315 kts | 298° |
| 2026-04-27 08:41 | -26.36801 | 28.26832 | 15370 ft | 317 kts | 298° |
| 2026-04-27 08:41 | -26.35646 | 28.24746 | 14950 ft | 315 kts | 298° |
| 2026-04-27 08:42 | -26.34499 | 28.22674 | 14540 ft | 314 kts | 298° |
| 2026-04-27 08:42 | -26.33355 | 28.20609 | 14134 ft | 312 kts | 298° |
| 2026-04-27 08:42 | -26.32218 | 28.18556 | 13741 ft | 310 kts | 298° |
| 2026-04-27 08:42 | -26.31088 | 28.16517 | 13335 ft | 309 kts | 298° |
| 2026-04-27 08:43 | -26.29961 | 28.14486 | 12936 ft | 307 kts | 298° |
| 2026-04-27 08:43 | -26.28841 | 28.12468 | 12554 ft | 305 kts | 298° |
| 2026-04-27 08:43 | -26.27729 | 28.10466 | 12161 ft | 303 kts | 298° |
| 2026-04-27 08:43 | -26.26623 | 28.08473 | 11771 ft | 301 kts | 298° |
| 2026-04-27 08:44 | -26.25526 | 28.06498 | 11400 ft | 299 kts | 298° |
| 2026-04-27 08:44 | -26.24434 | 28.04533 | 11023 ft | 297 kts | 298° |
| 2026-04-27 08:44 | -26.23349 | 28.02581 | 10709 ft | 294 kts | 298° |
| 2026-04-27 08:44 | -26.22290 | 28.00681 | 10572 ft | 284 kts | 299° |
| 2026-04-27 08:45 | -26.21265 | 27.98839 | 10448 ft | 275 kts | 299° |
| 2026-04-27 08:45 | -26.20273 | 27.97058 | 10320 ft | 267 kts | 299° |
| 2026-04-27 08:45 | -26.19304 | 27.95318 | 10088 ft | 263 kts | 299° |
| 2026-04-27 08:45 | -26.18342 | 27.93588 | 9805 ft | 262 kts | 299° |
| 2026-04-27 08:46 | -26.17382 | 27.91863 | 9506 ft | 261 kts | 299° |
| 2026-04-27 08:46 | -26.16434 | 27.90159 | 9227 ft | 260 kts | 300° |
| 2026-04-27 08:46 | -26.15483 | 27.88455 | 9030 ft | 256 kts | 300° |
| 2026-04-27 08:46 | -26.14552 | 27.86785 | 8874 ft | 251 kts | 300° |
| 2026-04-27 08:47 | -26.13646 | 27.85162 | 8765 ft | 244 kts | 300° |
| 2026-04-27 08:47 | -26.12765 | 27.83582 | 8663 ft | 236 kts | 300° |
| 2026-04-27 08:47 | -26.11922 | 27.82073 | 8592 ft | 223 kts | 300° |
| 2026-04-27 08:47 | -26.11353 | 27.81056 | 8507 ft | 215 kts | 300° |
| 2026-04-27 08:48 | -26.10579 | 27.79672 | 8299 ft | 206 kts | 301° |
| 2026-04-27 08:48 | -26.09840 | 27.78361 | 8094 ft | 199 kts | 304° |
| 2026-04-27 08:48 | -26.08781 | 27.77408 | 7871 ft | 194 kts | 338° |
| 2026-04-27 08:48 | -26.07475 | 27.77255 | 7685 ft | 189 kts | 8° |
| 2026-04-27 08:49 | -26.06315 | 27.77834 | 7492 ft | 187 kts | 40° |
| 2026-04-27 08:49 | -26.05405 | 27.78836 | 7359 ft | 183 kts | 45° |
| 2026-04-27 08:49 | -26.04557 | 27.79846 | 7218 ft | 172 kts | 45° |
| 2026-04-27 08:49 | -26.03756 | 27.80812 | 6979 ft | 166 kts | 45° |
| 2026-04-27 08:50 | -26.02980 | 27.81745 | 6822 ft | 165 kts | 45° |
| 2026-04-27 08:50 | -26.02193 | 27.82689 | 6682 ft | 168 kts | 45° |
| 2026-04-27 08:50 | -26.01400 | 27.83642 | 6457 ft | 167 kts | 45° |
| 2026-04-27 08:50 | -26.00619 | 27.84579 | 6235 ft | 164 kts | 45° |
| 2026-04-27 08:51 | -25.99860 | 27.85491 | 6017 ft | 158 kts | 46° |
| 2026-04-27 08:51 | -25.99118 | 27.86383 | 5818 ft | 158 kts | 47° |
| 2026-04-27 08:51 | -25.98370 | 27.87282 | 5612 ft | 159 kts | 47° |
| 2026-04-27 08:51 | -25.97618 | 27.88178 | 5390 ft | 158 kts | 46° |
| 2026-04-27 08:52 | -25.96870 | 27.89074 | 5171 ft | 157 kts | 47° |
| 2026-04-27 08:52 | -25.96135 | 27.89964 | 4979 ft | 156 kts | 47° |
| 2026-04-27 08:52 | -25.95399 | 27.90856 | 4774 ft | 157 kts | 47° |
| 2026-04-27 08:52 | -25.94652 | 27.91738 | 4554 ft | 157 kts | 47° |
| 2026-04-27 08:53 | -25.93968 | 27.92567 | 4473 ft | 129 kts | 47° |
| 2026-04-27 08:53 | -25.93527 | 27.93100 | 4436 ft | 48 kts | 47° |
| 2026-04-27 08:53 | -25.93297 | 27.93374 | 4421 ft | 42 kts | 47° |
| 2026-04-27 08:53 | -25.93115 | 27.93594 | 4406 ft | 36 kts | 47° |
| 2026-04-27 08:54 | -25.93001 | 27.93723 | 4396 ft | 23 kts | 34° |
| 2026-04-27 08:54 | -25.92895 | 27.93697 | 4397 ft | 14 kts | 322° |
| 2026-04-27 08:54 | -25.92873 | 27.93609 | 4398 ft | 13 kts | 244° |
| 2026-04-27 08:54 | -25.92927 | 27.93533 | 4402 ft | 13 kts | 223° |
| 2026-04-27 08:55 | -25.92987 | 27.93464 | 4407 ft | 12 kts | 227° |
| 2026-04-27 08:55 | -25.93045 | 27.93395 | 4412 ft | 12 kts | 227° |
| 2026-04-27 08:55 | -25.93101 | 27.93328 | 4417 ft | 12 kts | 227° |
| 2026-04-27 08:55 | -25.93155 | 27.93263 | 4420 ft | 11 kts | 227° |
| 2026-04-27 08:56 | -25.93208 | 27.93198 | 4423 ft | 11 kts | 227° |
| 2026-04-27 08:56 | -25.93259 | 27.93136 | 4428 ft | 11 kts | 227° |
| 2026-04-27 08:56 | -25.93309 | 27.93077 | 4431 ft | 10 kts | 227° |
| 2026-04-27 08:56 | -25.93360 | 27.93016 | 4434 ft | 11 kts | 227° |
| 2026-04-27 08:57 | -25.93472 | 27.92882 | 4442 ft | 12 kts | 227° |
| 2026-04-27 08:57 | -25.93518 | 27.92803 | 4446 ft | 13 kts | 269° |
| 2026-04-27 08:57 | -25.93518 | 27.92701 | 4449 ft | 14 kts | 250° |
| 2026-04-27 08:58 | -25.93575 | 27.92620 | 4454 ft | 13 kts | 225° |
| 2026-04-27 08:58 | -25.93587 | 27.92572 | 4456 ft | 6 kts | 300° |
| 2026-04-27 08:58 | -25.93581 | 27.92564 | 4456 ft | 0 kts | 314° |